createdAt,value
2022-10-06T00:02:10.549Z,14.69
2022-10-06T00:05:01.440Z,14.62
2022-10-06T00:07:49.183Z,14.77
2022-10-06T00:10:36.499Z,14.46
2022-10-06T00:13:23.306Z,14.51
2022-10-06T00:16:39.404Z,14.53
2022-10-06T00:23:32.584Z,14.33
2022-10-06T00:26:54.113Z,14.45
2022-10-06T00:30:07.020Z,14.41
2022-10-06T00:33:19.432Z,14.35
2022-10-06T00:36:30.772Z,14.33
2022-10-06T00:39:25.780Z,14.36
2022-10-06T00:42:47.065Z,14.41
2022-10-06T00:45:42.357Z,14.45
2022-10-06T00:48:56.705Z,14.35
2022-10-06T00:55:45.845Z,14.20
2022-10-06T00:58:49.071Z,14.14
2022-10-06T01:02:21.852Z,14.33
2022-10-06T01:05:26.859Z,14.43
2022-10-06T01:11:51.886Z,14.56
2022-10-06T01:15:05.075Z,14.67
2022-10-06T01:17:59.404Z,14.81
2022-10-06T01:21:11.726Z,14.76
2022-10-06T01:27:42.454Z,14.66
2022-10-06T01:30:46.240Z,14.79
2022-10-06T01:34:16.688Z,14.89
2022-10-06T01:40:52.523Z,14.87
2022-10-06T01:43:47.272Z,14.90
2022-10-06T01:50:07.685Z,14.82
2022-10-06T02:00:41.334Z,14.77
2022-10-06T02:07:22.089Z,15.11
2022-10-06T02:10:39.298Z,14.96
2022-10-06T02:13:41.024Z,14.99
2022-10-06T02:16:48.979Z,14.81
2022-10-06T02:20:14.148Z,15.04
2022-10-06T02:23:50.321Z,14.80
2022-10-06T02:27:01.843Z,14.76
2022-10-06T02:30:45.190Z,14.81
2022-10-06T02:34:17.074Z,14.76
2022-10-06T02:37:11.199Z,14.70
2022-10-06T02:39:58.263Z,14.73
2022-10-06T02:42:45.761Z,14.57
2022-10-06T02:46:14.058Z,14.61
2022-10-06T02:49:31.553Z,14.47
2022-10-06T02:52:23.635Z,14.41
2022-10-06T02:55:17.914Z,14.54
2022-10-06T02:58:14.230Z,14.55
2022-10-06T03:01:22.136Z,14.59
2022-10-06T03:04:48.940Z,14.57
2022-10-06T03:07:42.720Z,14.63
2022-10-06T03:11:09.463Z,14.73
2022-10-06T03:14:03.115Z,14.91
2022-10-06T03:20:53.291Z,15.13
2022-10-06T03:23:49.867Z,15.12
2022-10-06T03:29:51.925Z,15.16
2022-10-06T03:32:54.538Z,15.31
2022-10-06T03:36:07.711Z,15.18
2022-10-06T03:39:08.025Z,15.26
2022-10-06T03:41:57.187Z,15.37
2022-10-06T03:44:43.686Z,15.34
2022-10-06T03:47:31.905Z,15.38
2022-10-06T03:50:21.880Z,15.36
2022-10-06T03:53:18.776Z,15.41
2022-10-06T03:56:16.401Z,15.38
2022-10-06T04:02:29.722Z,15.48
2022-10-06T04:05:33.678Z,15.37
2022-10-06T04:08:46.991Z,15.36
2022-10-06T04:11:48.828Z,15.29
2022-10-06T04:14:36.392Z,15.26
2022-10-06T04:17:24.443Z,15.26
2022-10-06T04:20:19.745Z,15.38
2022-10-06T04:23:08.702Z,15.24
2022-10-06T04:26:02.015Z,15.27
2022-10-06T04:29:01.988Z,15.23
2022-10-06T04:31:51.127Z,15.20
2022-10-06T04:35:19.912Z,15.09
2022-10-06T04:38:49.712Z,15.11
2022-10-06T04:41:59.977Z,14.95
2022-10-06T04:45:14.757Z,14.96
2022-10-06T04:48:03.035Z,14.89
2022-10-06T04:50:55.207Z,14.77
2022-10-06T04:53:44.449Z,14.86
2022-10-06T04:56:33.701Z,14.83
2022-10-06T04:59:44.807Z,14.88
2022-10-06T05:02:36.582Z,14.85
2022-10-06T05:05:34.569Z,14.77
2022-10-06T05:08:33.567Z,14.73
2022-10-06T05:11:25.652Z,14.77
2022-10-06T05:14:16.551Z,14.69
2022-10-06T05:17:08.217Z,14.62
2022-10-06T05:19:56.784Z,14.66
2022-10-06T05:23:00.001Z,14.60
2022-10-06T05:25:52.269Z,14.64
2022-10-06T05:28:39.937Z,14.58
2022-10-06T05:31:29.784Z,14.67
2022-10-06T05:34:18.968Z,14.61
2022-10-06T05:37:06.859Z,14.62
2022-10-06T05:40:03.086Z,14.48
2022-10-06T05:43:07.051Z,14.40
2022-10-06T05:45:56.681Z,14.61
2022-10-06T05:48:49.555Z,14.75
2022-10-06T05:51:41.800Z,14.66
2022-10-06T05:54:36.881Z,14.69
2022-10-06T05:57:29.542Z,14.58
2022-10-06T06:00:18.431Z,14.57
2022-10-06T06:03:10.006Z,14.57
2022-10-06T06:05:58.007Z,14.48
2022-10-06T06:08:53.425Z,14.48
2022-10-06T06:12:06.470Z,14.41
2022-10-06T06:15:25.012Z,14.42
2022-10-06T06:18:23.300Z,14.41
2022-10-06T06:21:13.844Z,14.43
2022-10-06T06:24:08.554Z,14.57
2022-10-06T06:40:18.935Z,14.44
2022-10-06T06:43:09.448Z,14.37
2022-10-06T06:46:56.929Z,14.38
2022-10-06T06:49:44.583Z,14.38
2022-10-06T06:53:04.960Z,14.39
2022-10-06T06:56:04.292Z,14.42
2022-10-06T06:59:03.588Z,14.41
2022-10-06T07:01:54.706Z,14.45
2022-10-06T07:04:44.146Z,14.31
2022-10-06T07:07:34.292Z,14.44
2022-10-06T07:10:23.963Z,14.39
2022-10-06T07:13:33.562Z,14.42
2022-10-06T07:16:52.675Z,14.43
2022-10-06T07:19:56.619Z,14.37
2022-10-06T07:26:19.712Z,14.42
2022-10-06T07:29:17.537Z,14.47
2022-10-06T07:32:09.070Z,14.51
2022-10-06T07:35:01.241Z,14.52
2022-10-06T07:38:12.128Z,14.68
2022-10-06T07:41:25.655Z,14.83
2022-10-06T07:44:22.523Z,14.82
2022-10-06T07:47:14.445Z,14.87
2022-10-06T07:50:21.346Z,15.18
2022-10-06T07:53:13.010Z,15.67
2022-10-06T07:56:10.738Z,15.80
2022-10-06T07:59:27.948Z,15.98
2022-10-06T08:02:40.397Z,15.81
2022-10-06T08:05:32.500Z,15.60
2022-10-06T08:08:19.679Z,15.53
2022-10-06T08:11:50.459Z,15.44
2022-10-06T08:14:47.919Z,15.43
2022-10-06T08:17:52.439Z,15.39
2022-10-06T08:21:03.604Z,15.27
2022-10-06T08:23:52.727Z,15.23
2022-10-06T08:26:40.482Z,15.20
2022-10-06T08:29:28.201Z,15.23
2022-10-06T08:32:22.347Z,15.26
2022-10-06T08:35:15.944Z,15.32
2022-10-06T08:38:05.964Z,15.27
2022-10-06T08:41:22.340Z,15.24
2022-10-06T08:45:01.815Z,15.28
2022-10-06T08:48:34.733Z,15.39
2022-10-06T08:51:47.635Z,15.39
2022-10-06T08:55:09.635Z,15.62
2022-10-06T08:58:39.319Z,15.58
2022-10-06T09:02:00.792Z,15.66
2022-10-06T09:04:51.230Z,15.44
2022-10-06T09:08:02.190Z,15.35
2022-10-06T09:11:22.301Z,15.23
2022-10-06T09:14:25.041Z,15.20
2022-10-06T09:17:55.607Z,15.19
2022-10-06T09:21:00.554Z,15.08
2022-10-06T09:24:00.496Z,15.14
2022-10-06T09:27:23.660Z,15.14
2022-10-06T09:30:14.677Z,15.33
2022-10-06T09:33:41.584Z,15.40
2022-10-06T09:37:01.258Z,15.56
2022-10-06T09:40:15.283Z,15.84
2022-10-06T09:43:18.454Z,15.98
2022-10-06T09:46:41.040Z,16.09
2022-10-06T09:49:34.881Z,16.08
2022-10-06T09:52:24.309Z,16.23
2022-10-06T09:55:30.420Z,16.02
2022-10-06T09:58:49.484Z,15.87
2022-10-06T10:01:43.044Z,15.93
2022-10-06T10:04:51.666Z,16.03
2022-10-06T10:07:52.736Z,16.19
2022-10-06T10:10:44.479Z,16.43
2022-10-06T10:13:59.364Z,16.56
2022-10-06T10:16:53.529Z,16.57
2022-10-06T10:19:51.081Z,16.56
2022-10-06T10:23:18.343Z,16.42
2022-10-06T10:26:27.311Z,16.16
2022-10-06T10:29:51.786Z,16.35
2022-10-06T10:33:01.517Z,16.64
2022-10-06T10:36:10.265Z,16.71
2022-10-06T10:39:12.068Z,16.69
2022-10-06T10:42:24.622Z,16.51
2022-10-06T10:45:26.701Z,16.36
2022-10-06T10:49:09.398Z,16.33
2022-10-06T10:52:38.953Z,16.36
2022-10-06T10:55:55.081Z,16.43
2022-10-06T10:58:53.780Z,16.65
2022-10-06T11:01:55.368Z,16.73
2022-10-06T11:05:05.802Z,16.66
2022-10-06T11:08:37.864Z,16.73
2022-10-06T11:12:10.973Z,16.69
2022-10-06T11:15:44.156Z,16.77
2022-10-06T11:18:57.671Z,16.72
2022-10-06T11:22:23.362Z,16.66
2022-10-06T11:25:40.695Z,16.74
2022-10-06T11:28:43.035Z,16.91
2022-10-06T11:31:47.268Z,16.98
2022-10-06T11:34:43.105Z,17.02
2022-10-06T11:38:04.182Z,17.13
